sensor_id;sensor_type;location;lat;lon;timestamp;pressure;altitude;pressure_sealevel;temperature;humidity
46267;BME280;31998;48.798;15.066;2022-11-06T00:00:33;96170.97;;;0.51;100.00
46267;BME280;31998;48.798;15.066;2022-11-06T00:02:59;96168.25;;;0.33;100.00
46267;BME280;31998;48.798;15.066;2022-11-06T00:05:26;96164.66;;;0.20;100.00
46267;BME280;31998;48.798;15.066;2022-11-06T00:08:10;96167.13;;;0.15;100.00
46267;BME280;31998;48.798;15.066;2022-11-06T00:10:36;96175.19;;;-0.11;100.00
46267;BME280;31998;48.798;15.066;2022-11-06T00:13:02;96172.19;;;-0.21;100.00
46267;BME280;31998;48.798;15.066;2022-11-06T00:15:27;96177.94;;;-0.31;100.00
46267;BME280;31998;48.798;15.066;2022-11-06T00:17:52;96175.13;;;-0.43;100.00
46267;BME280;31998;48.798;15.066;2022-11-06T00:20:18;96171.03;;;-0.39;100.00
46267;BME280;31998;48.798;15.066;2022-11-06T00:22:43;96178.75;;;-0.31;100.00
46267;BME280;31998;48.798;15.066;2022-11-06T00:25:09;96179.75;;;-0.25;100.00
46267;BME280;31998;48.798;15.066;2022-11-06T00:27:36;96183.53;;;-0.14;100.00
46267;BME280;31998;48.798;15.066;2022-11-06T00:30:04;96176.13;;;-0.37;100.00
46267;BME280;31998;48.798;15.066;2022-11-06T00:32:30;96187.06;;;-0.34;100.00
46267;BME280;31998;48.798;15.066;2022-11-06T00:34:56;96187.25;;;-0.22;100.00
46267;BME280;31998;48.798;15.066;2022-11-06T00:37:21;96186.97;;;-0.07;100.00
46267;BME280;31998;48.798;15.066;2022-11-06T00:39:46;96185.84;;;-0.24;100.00
46267;BME280;31998;48.798;15.066;2022-11-06T00:42:12;96184.84;;;-0.30;100.00
46267;BME280;31998;48.798;15.066;2022-11-06T00:44:37;96194.59;;;-0.31;100.00
46267;BME280;31998;48.798;15.066;2022-11-06T00:47:02;96195.19;;;-0.29;100.00
46267;BME280;31998;48.798;15.066;2022-11-06T00:49:28;96199.09;;;-0.31;100.00
46267;BME280;31998;48.798;15.066;2022-11-06T00:51:53;96199.47;;;-0.28;100.00
46267;BME280;31998;48.798;15.066;2022-11-06T00:54:19;96193.19;;;-0.40;100.00
46267;BME280;31998;48.798;15.066;2022-11-06T00:56:44;96199.31;;;-0.46;100.00
46267;BME280;31998;48.798;15.066;2022-11-06T00:59:11;96201.16;;;-0.53;100.00
46267;BME280;31998;48.798;15.066;2022-11-06T01:01:39;96193.06;;;-0.58;100.00
46267;BME280;31998;48.798;15.066;2022-11-06T01:04:10;96203.00;;;-0.53;100.00
46267;BME280;31998;48.798;15.066;2022-11-06T01:06:38;96205.03;;;-0.49;100.00
46267;BME280;31998;48.798;15.066;2022-11-06T01:09:05;96207.28;;;-0.59;100.00
46267;BME280;31998;48.798;15.066;2022-11-06T01:11:33;96198.97;;;-0.69;100.00
46267;BME280;31998;48.798;15.066;2022-11-06T01:14:00;96202.63;;;-0.70;100.00
46267;BME280;31998;48.798;15.066;2022-11-06T01:16:26;96198.78;;;-0.74;100.00
46267;BME280;31998;48.798;15.066;2022-11-06T01:18:53;96199.81;;;-0.75;100.00
46267;BME280;31998;48.798;15.066;2022-11-06T01:21:21;96198.75;;;-0.61;100.00
46267;BME280;31998;48.798;15.066;2022-11-06T01:23:55;96197.47;;;-0.39;100.00
46267;BME280;31998;48.798;15.066;2022-11-06T01:26:21;96197.81;;;-0.22;100.00
46267;BME280;31998;48.798;15.066;2022-11-06T01:28:46;96197.47;;;-0.39;100.00
46267;BME280;31998;48.798;15.066;2022-11-06T01:31:15;96197.47;;;-0.39;100.00
46267;BME280;31998;48.798;15.066;2022-11-06T01:33:41;96186.25;;;-0.28;100.00
46267;BME280;31998;48.798;15.066;2022-11-06T01:36:08;96188.06;;;-0.28;100.00
46267;BME280;31998;48.798;15.066;2022-11-06T01:38:34;96201.13;;;-0.40;100.00
46267;BME280;31998;48.798;15.066;2022-11-06T01:40:59;96182.50;;;-0.58;100.00
46267;BME280;31998;48.798;15.066;2022-11-06T01:43:52;96193.88;;;-0.64;100.00
46267;BME280;31998;48.798;15.066;2022-11-06T01:46:20;96201.03;;;-0.71;100.00
46267;BME280;31998;48.798;15.066;2022-11-06T01:48:51;96192.28;;;-0.78;100.00
46267;BME280;31998;48.798;15.066;2022-11-06T01:51:19;96195.09;;;-0.73;100.00
46267;BME280;31998;48.798;15.066;2022-11-06T01:53:46;96196.72;;;-0.72;100.00
46267;BME280;31998;48.798;15.066;2022-11-06T01:56:12;96193.47;;;-0.68;100.00
46267;BME280;31998;48.798;15.066;2022-11-06T01:58:40;96195.88;;;-0.53;100.00
46267;BME280;31998;48.798;15.066;2022-11-06T02:01:08;96189.75;;;-0.40;100.00
46267;BME280;31998;48.798;15.066;2022-11-06T02:03:35;96191.72;;;-0.22;100.00
46267;BME280;31998;48.798;15.066;2022-11-06T02:06:01;96184.75;;;-0.10;100.00
46267;BME280;31998;48.798;15.066;2022-11-06T02:08:28;96194.97;;;-0.20;100.00
46267;BME280;31998;48.798;15.066;2022-11-06T02:10:54;96194.59;;;-0.31;100.00
46267;BME280;31998;48.798;15.066;2022-11-06T02:27:10;96190.50;;;-0.27;100.00
46267;BME280;31998;48.798;15.066;2022-11-06T02:29:55;96195.56;;;-0.18;100.00
46267;BME280;31998;48.798;15.066;2022-11-06T02:34:57;96185.78;;;-0.11;100.00
46267;BME280;31998;48.798;15.066;2022-11-06T02:37:30;96190.81;;;-0.03;100.00
46267;BME280;31998;48.798;15.066;2022-11-06T02:40:00;96179.41;;;0.03;100.00
46267;BME280;31998;48.798;15.066;2022-11-06T02:42:28;96187.50;;;0.15;100.00
46267;BME280;31998;48.798;15.066;2022-11-06T02:44:56;96197.06;;;0.09;100.00
46267;BME280;31998;48.798;15.066;2022-11-06T02:47:24;96197.72;;;-0.02;100.00
46267;BME280;31998;48.798;15.066;2022-11-06T02:50:20;96201.47;;;-0.16;100.00
46267;BME280;31998;48.798;15.066;2022-11-06T02:52:57;96208.03;;;-0.25;100.00
46267;BME280;31998;48.798;15.066;2022-11-06T02:55:45;96204.38;;;-0.31;100.00
46267;BME280;31998;48.798;15.066;2022-11-06T02:58:36;96187.03;;;-0.27;100.00
46267;BME280;31998;48.798;15.066;2022-11-06T03:01:06;96196.38;;;-0.18;100.00
46267;BME280;31998;48.798;15.066;2022-11-06T03:03:40;96196.16;;;-0.16;100.00
46267;BME280;31998;48.798;15.066;2022-11-06T03:06:13;96199.84;;;-0.17;100.00
46267;BME280;31998;48.798;15.066;2022-11-06T03:08:54;96193.25;;;-0.02;100.00
46267;BME280;31998;48.798;15.066;2022-11-06T03:11:32;96197.66;;;0.11;100.00
46267;BME280;31998;48.798;15.066;2022-11-06T03:14:15;96190.41;;;0.00;100.00
46267;BME280;31998;48.798;15.066;2022-11-06T03:22:13;96194.59;;;-0.31;100.00
46267;BME280;31998;48.798;15.066;2022-11-06T03:27:41;96198.50;;;-0.53;100.00
46267;BME280;31998;48.798;15.066;2022-11-06T03:30:13;96201.16;;;-0.53;100.00
46267;BME280;31998;48.798;15.066;2022-11-06T03:32:49;96195.72;;;-0.58;100.00
46267;BME280;31998;48.798;15.066;2022-11-06T03:35:22;96194.66;;;-0.50;100.00
46267;BME280;31998;48.798;15.066;2022-11-06T03:40:26;96194.22;;;-0.41;100.00
46267;BME280;31998;48.798;15.066;2022-11-06T03:42:57;96197.84;;;-0.29;100.00
46267;BME280;31998;48.798;15.066;2022-11-06T03:45:25;96177.06;;;-0.18;100.00
46267;BME280;31998;48.798;15.066;2022-11-06T03:53:19;96186.56;;;-0.04;100.00
46267;BME280;31998;48.798;15.066;2022-11-06T03:55:51;96194.00;;;0.12;100.00
46267;BME280;31998;48.798;15.066;2022-11-06T03:58:22;96174.63;;;0.18;100.00
46267;BME280;31998;48.798;15.066;2022-11-06T04:00:50;96183.84;;;0.09;100.00
46267;BME280;31998;48.798;15.066;2022-11-06T04:03:26;96202.28;;;-0.16;100.00
46267;BME280;31998;48.798;15.066;2022-11-06T04:05:59;96197.03;;;-0.29;100.00
46267;BME280;31998;48.798;15.066;2022-11-06T04:08:27;96200.72;;;-0.37;100.00
46267;BME280;31998;48.798;15.066;2022-11-06T04:11:17;96199.31;;;-0.33;100.00
46267;BME280;31998;48.798;15.066;2022-11-06T04:14:03;96192.97;;;-0.25;100.00
46267;BME280;31998;48.798;15.066;2022-11-06T04:16:40;96201.06;;;-0.20;100.00
46267;BME280;31998;48.798;15.066;2022-11-06T04:19:15;96203.94;;;-0.28;100.00
46267;BME280;31998;48.798;15.066;2022-11-06T04:22:01;96197.81;;;-0.22;100.00
46267;BME280;31998;48.798;15.066;2022-11-06T04:24:35;96200.63;;;-0.10;100.00
46267;BME280;31998;48.798;15.066;2022-11-06T04:27:41;96201.47;;;-0.16;100.00
46267;BME280;31998;48.798;15.066;2022-11-06T04:30:10;96201.50;;;-0.30;100.00
46267;BME280;31998;48.798;15.066;2022-11-06T04:35:21;96205.97;;;-0.23;100.00
46267;BME280;31998;48.798;15.066;2022-11-06T04:38:04;96211.31;;;-0.37;100.00
46267;BME280;31998;48.798;15.066;2022-11-06T04:43:29;96192.97;;;-0.32;100.00
46267;BME280;31998;48.798;15.066;2022-11-06T04:45:59;96193.19;;;-0.40;100.00
46267;BME280;31998;48.798;15.066;2022-11-06T04:48:27;96194.25;;;-0.54;100.00
46267;BME280;31998;48.798;15.066;2022-11-06T04:50:57;96192.66;;;-0.68;100.00
46267;BME280;31998;48.798;15.066;2022-11-06T04:53:24;96196.94;;;-0.80;100.00
46267;BME280;31998;48.798;15.066;2022-11-06T04:55:53;96194.09;;;-0.86;100.00
46267;BME280;31998;48.798;15.066;2022-11-06T04:58:18;96191.69;;;-0.94;100.00
46267;BME280;31998;48.798;15.066;2022-11-06T05:00:46;96190.88;;;-0.94;100.00
46267;BME280;31998;48.798;15.066;2022-11-06T05:03:13;96190.69;;;-0.99;100.00
46267;BME280;31998;48.798;15.066;2022-11-06T05:05:39;96181.72;;;-0.92;100.00
46267;BME280;31998;48.798;15.066;2022-11-06T05:08:04;96180.50;;;-0.89;100.00
46267;BME280;31998;48.798;15.066;2022-11-06T05:10:30;96187.19;;;-0.80;100.00
46267;BME280;31998;48.798;15.066;2022-11-06T05:12:55;96192.28;;;-0.78;100.00
46267;BME280;31998;48.798;15.066;2022-11-06T05:15:20;96188.00;;;-0.79;100.00
46267;BME280;31998;48.798;15.066;2022-11-06T05:17:46;96190.63;;;-0.73;100.00
46267;BME280;31998;48.798;15.066;2022-11-06T05:20:11;96182.09;;;-0.68;100.00
46267;BME280;31998;48.798;15.066;2022-11-06T05:22:43;96181.69;;;-0.59;100.00
46267;BME280;31998;48.798;15.066;2022-11-06T05:25:30;96180.63;;;-0.51;100.00
46267;BME280;31998;48.798;15.066;2022-11-06T05:27:56;96178.78;;;-0.44;100.00
46267;BME280;31998;48.798;15.066;2022-11-06T05:30:22;96176.13;;;-0.44;100.00
46267;BME280;31998;48.798;15.066;2022-11-06T05:32:48;96187.72;;;-0.38;100.00
46267;BME280;31998;48.798;15.066;2022-11-06T05:35:14;96188.53;;;-0.38;100.00
46267;BME280;31998;48.798;15.066;2022-11-06T05:37:39;96184.91;;;-0.50;100.00
46267;BME280;31998;48.798;15.066;2022-11-06T05:40:05;96173.78;;;-0.65;100.00
46267;BME280;31998;48.798;15.066;2022-11-06T05:42:33;96183.72;;;-0.67;100.00
46267;BME280;31998;48.798;15.066;2022-11-06T05:44:58;96182.09;;;-0.68;100.00
46267;BME280;31998;48.798;15.066;2022-11-06T05:47:24;96189.03;;;-0.80;100.00
46267;BME280;31998;48.798;15.066;2022-11-06T05:49:49;96194.75;;;-0.97;100.00
46267;BME280;31998;48.798;15.066;2022-11-06T05:52:14;96194.75;;;-1.03;100.00
46267;BME280;31998;48.798;15.066;2022-11-06T05:54:40;96186.63;;;-1.02;100.00
46267;BME280;31998;48.798;15.066;2022-11-06T05:57:05;96191.47;;;-0.86;100.00
46267;BME280;31998;48.798;15.066;2022-11-06T05:59:30;96183.13;;;-0.69;100.00
46267;BME280;31998;48.798;15.066;2022-11-06T06:01:56;96184.13;;;-0.57;100.00
46267;BME280;31998;48.798;15.066;2022-11-06T06:04:23;96184.72;;;-0.55;100.00
46267;BME280;31998;48.798;15.066;2022-11-06T06:06:49;96184.16;;;-0.70;100.00
46267;BME280;31998;48.798;15.066;2022-11-06T06:09:14;96190.25;;;-0.76;100.00
46267;BME280;31998;48.798;15.066;2022-11-06T06:11:39;96184.75;;;-0.82;100.00
46267;BME280;31998;48.798;15.066;2022-11-06T06:14:05;96198.78;;;-0.74;100.00
46267;BME280;31998;48.798;15.066;2022-11-06T06:16:30;96201.22;;;-0.79;100.00
46267;BME280;31998;48.798;15.066;2022-11-06T06:18:55;96194.75;;;-0.84;100.00
46267;BME280;31998;48.798;15.066;2022-11-06T06:21:21;96193.50;;;-0.88;100.00
46267;BME280;31998;48.798;15.066;2022-11-06T06:23:46;96203.06;;;-0.80;100.00
46267;BME280;31998;48.798;15.066;2022-11-06T06:26:12;96204.88;;;-0.80;100.00
46267;BME280;31998;48.798;15.066;2022-11-06T06:28:37;96203.84;;;-0.73;100.00
46267;BME280;31998;48.798;15.066;2022-11-06T06:31:04;96199.19;;;-0.64;100.00
46267;BME280;31998;48.798;15.066;2022-11-06T06:33:30;96191.63;;;-0.54;100.00
46267;BME280;31998;48.798;15.066;2022-11-06T06:35:55;96194.44;;;-0.42;100.00
46267;BME280;31998;48.798;15.066;2022-11-06T06:38:20;96190.94;;;-0.30;100.00
46267;BME280;31998;48.798;15.066;2022-11-06T06:40:46;96185.63;;;-0.23;100.00
46267;BME280;31998;48.798;15.066;2022-11-06T06:43:11;96181.91;;;-0.15;100.00
46267;BME280;31998;48.798;15.066;2022-11-06T06:45:36;96184.91;;;0.02;100.00
46267;BME280;31998;48.798;15.066;2022-11-06T06:48:03;96184.03;;;0.14;100.00
46267;BME280;31998;48.798;15.066;2022-11-06T06:50:28;96185.00;;;0.26;100.00
46267;BME280;31998;48.798;15.066;2022-11-06T06:52:57;96190.78;;;0.42;100.00
46267;BME280;31998;48.798;15.066;2022-11-06T06:55:24;96197.03;;;0.54;100.00
46267;BME280;31998;48.798;15.066;2022-11-06T06:57:59;96185.50;;;0.42;100.00
46267;BME280;31998;48.798;15.066;2022-11-06T07:00:26;96182.50;;;0.32;100.00
46267;BME280;31998;48.798;15.066;2022-11-06T07:02:52;96194.44;;;0.47;100.00
46267;BME280;31998;48.798;15.066;2022-11-06T07:05:17;96190.69;;;0.55;100.00
46267;BME280;31998;48.798;15.066;2022-11-06T07:07:43;96201.78;;;0.70;100.00
46267;BME280;31998;48.798;15.066;2022-11-06T07:10:08;96194.34;;;0.86;100.00
46267;BME280;31998;48.798;15.066;2022-11-06T07:12:34;96188.19;;;0.92;100.00
46267;BME280;31998;48.798;15.066;2022-11-06T07:14:59;96202.78;;;1.01;100.00
46267;BME280;31998;48.798;15.066;2022-11-06T07:17:24;96202.38;;;0.97;100.00
46267;BME280;31998;48.798;15.066;2022-11-06T07:19:51;96189.31;;;1.02;100.00
46267;BME280;31998;48.798;15.066;2022-11-06T07:22:16;96188.84;;;1.12;100.00
46267;BME280;31998;48.798;15.066;2022-11-06T07:24:41;96198.19;;;1.15;100.00
46267;BME280;31998;48.798;15.066;2022-11-06T07:27:07;96184.06;;;1.21;100.00
46267;BME280;31998;48.798;15.066;2022-11-06T07:29:32;96188.22;;;1.10;100.00
46267;BME280;31998;48.798;15.066;2022-11-06T07:31:57;96186.00;;;1.07;100.00
46267;BME280;31998;48.798;15.066;2022-11-06T07:34:23;96179.09;;;1.06;100.00
46267;BME280;31998;48.798;15.066;2022-11-06T07:36:48;96188.38;;;1.15;100.00
46267;BME280;31998;48.798;15.066;2022-11-06T07:39:14;96181.47;;;1.14;100.00
46267;BME280;31998;48.798;15.066;2022-11-06T07:41:39;96188.88;;;1.30;100.00
46267;BME280;31998;48.798;15.066;2022-11-06T07:44:04;96192.41;;;1.43;100.00
46267;BME280;31998;48.798;15.066;2022-11-06T07:46:30;96184.38;;;1.49;100.00
46267;BME280;31998;48.798;15.066;2022-11-06T07:48:55;96190.94;;;1.65;100.00
46267;BME280;31998;48.798;15.066;2022-11-06T07:51:21;96187.34;;;1.78;100.00
46267;BME280;31998;48.798;15.066;2022-11-06T07:53:46;96191.94;;;2.01;100.00
46267;BME280;31998;48.798;15.066;2022-11-06T07:56:12;96187.44;;;2.01;100.00
46267;BME280;31998;48.798;15.066;2022-11-06T07:58:37;96188.06;;;2.03;100.00
46267;BME280;31998;48.798;15.066;2022-11-06T08:01:03;96186.38;;;2.21;100.00
46267;BME280;31998;48.798;15.066;2022-11-06T08:03:28;96193.81;;;2.30;100.00
46267;BME280;31998;48.798;15.066;2022-11-06T08:05:55;96188.50;;;2.30;100.00
46267;BME280;31998;48.798;15.066;2022-11-06T08:08:20;96172.06;;;2.52;100.00
46267;BME280;31998;48.798;15.066;2022-11-06T08:10:46;96168.44;;;2.76;100.00
46267;BME280;31998;48.798;15.066;2022-11-06T08:13:14;96166.84;;;2.98;100.00
46267;BME280;31998;48.798;15.066;2022-11-06T08:15:41;96166.38;;;3.25;100.00
46267;BME280;31998;48.798;15.066;2022-11-06T08:18:08;96159.09;;;3.44;100.00
46267;BME280;31998;48.798;15.066;2022-11-06T08:20:35;96155.47;;;3.62;100.00
46267;BME280;31998;48.798;15.066;2022-11-06T08:23:01;96159.31;;;3.66;100.00
46267;BME280;31998;48.798;15.066;2022-11-06T08:25:28;96155.72;;;3.72;100.00
46267;BME280;31998;48.798;15.066;2022-11-06T08:27:55;96142.66;;;3.59;100.00
46267;BME280;31998;48.798;15.066;2022-11-06T08:30:20;96143.81;;;3.51;100.00
46267;BME280;31998;48.798;15.066;2022-11-06T08:32:46;96147.88;;;3.53;100.00
46267;BME280;31998;48.798;15.066;2022-11-06T08:35:11;96148.00;;;3.47;100.00
46267;BME280;31998;48.798;15.066;2022-11-06T08:37:36;96153.19;;;3.53;100.00
46267;BME280;31998;48.798;15.066;2022-11-06T08:40:02;96143.22;;;3.72;100.00
46267;BME280;31998;48.798;15.066;2022-11-06T08:42:28;96137.38;;;3.87;100.00
46267;BME280;31998;48.798;15.066;2022-11-06T08:44:54;96130.59;;;4.08;100.00
46267;BME280;31998;48.798;15.066;2022-11-06T08:47:19;96125.72;;;4.33;100.00
46267;BME280;31998;48.798;15.066;2022-11-06T08:49:44;96130.50;;;4.48;100.00
46267;BME280;31998;48.798;15.066;2022-11-06T08:52:10;96124.97;;;4.67;100.00
46267;BME280;31998;48.798;15.066;2022-11-06T08:54:35;96126.72;;;4.95;100.00
46267;BME280;31998;48.798;15.066;2022-11-06T08:57:00;96125.34;;;5.26;100.00
46267;BME280;31998;48.798;15.066;2022-11-06T08:59:26;96117.03;;;5.83;100.00
46267;BME280;31998;48.798;15.066;2022-11-06T09:01:51;96115.94;;;6.28;100.00
46267;BME280;31998;48.798;15.066;2022-11-06T09:04:17;96114.16;;;6.38;100.00
46267;BME280;31998;48.798;15.066;2022-11-06T09:06:42;96103.38;;;6.55;100.00
46267;BME280;31998;48.798;15.066;2022-11-06T09:09:08;96097.72;;;6.84;100.00
46267;BME280;31998;48.798;15.066;2022-11-06T09:11:33;96084.38;;;7.26;100.00
46267;BME280;31998;48.798;15.066;2022-11-06T09:13:59;96082.59;;;6.99;100.00
46267;BME280;31998;48.798;15.066;2022-11-06T09:16:25;96068.44;;;7.04;100.00
46267;BME280;31998;48.798;15.066;2022-11-06T09:18:53;96066.81;;;7.03;100.00
46267;BME280;31998;48.798;15.066;2022-11-06T09:21:19;96055.78;;;7.37;100.00
46267;BME280;31998;48.798;15.066;2022-11-06T09:23:45;96051.78;;;8.12;100.00
46267;BME280;31998;48.798;15.066;2022-11-06T09:26:12;96052.94;;;8.57;100.00
46267;BME280;31998;48.798;15.066;2022-11-06T09:28:38;96033.59;;;8.85;100.00
46267;BME280;31998;48.798;15.066;2022-11-06T09:31:03;96044.34;;;8.65;100.00
46267;BME280;31998;48.798;15.066;2022-11-06T09:33:29;96033.88;;;8.84;100.00
46267;BME280;31998;48.798;15.066;2022-11-06T09:35:54;96038.13;;;9.05;100.00
46267;BME280;31998;48.798;15.066;2022-11-06T09:38:19;96036.50;;;9.24;100.00
46267;BME280;31998;48.798;15.066;2022-11-06T09:40:51;96038.94;;;9.26;100.00
46267;BME280;31998;48.798;15.066;2022-11-06T09:46:28;96038.50;;;9.68;100.00
46267;BME280;31998;48.798;15.066;2022-11-06T09:49:00;96038.72;;;9.77;100.00
46267;BME280;31998;48.798;15.066;2022-11-06T09:51:54;96037.91;;;9.76;100.00
46267;BME280;31998;48.798;15.066;2022-11-06T09:54:29;96033.69;;;10.25;100.00
46267;BME280;31998;48.798;15.066;2022-11-06T09:57:10;96042.91;;;10.03;100.00
46267;BME280;31998;48.798;15.066;2022-11-06T09:59:37;96031.63;;;9.96;100.00
46267;BME280;31998;48.798;15.066;2022-11-06T10:02:28;96029.44;;;10.09;100.00
46267;BME280;31998;48.798;15.066;2022-11-06T10:07:34;96017.31;;;10.11;100.00
46267;BME280;31998;48.798;15.066;2022-11-06T10:10:03;96010.56;;;10.19;100.00
46267;BME280;31998;48.798;15.066;2022-11-06T10:12:56;96001.09;;;10.21;100.00
46267;BME280;31998;48.798;15.066;2022-11-06T10:15:42;95992.16;;;10.36;100.00
46267;BME280;31998;48.798;15.066;2022-11-06T10:18:19;95987.78;;;10.45;100.00
46267;BME280;31998;48.798;15.066;2022-11-06T10:20:52;95969.94;;;10.54;100.00
46267;BME280;31998;48.798;15.066;2022-11-06T10:23:24;95965.75;;;10.43;100.00
46267;BME280;31998;48.798;15.066;2022-11-06T10:26:12;95972.16;;;10.47;100.00
46267;BME280;31998;48.798;15.066;2022-11-06T10:28:44;95974.16;;;10.66;100.00
46267;BME280;31998;48.798;15.066;2022-11-06T10:32:39;95975.22;;;10.70;100.00
46267;BME280;31998;48.798;15.066;2022-11-06T10:37:07;95960.50;;;10.86;100.00
46267;BME280;31998;48.798;15.066;2022-11-06T10:39:35;95967.44;;;10.92;100.00
46267;BME280;31998;48.798;15.066;2022-11-06T10:44:34;95955.06;;;10.91;100.00
46267;BME280;31998;48.798;15.066;2022-11-06T10:47:22;95964.31;;;11.09;100.00
46267;BME280;31998;48.798;15.066;2022-11-06T10:49:51;95965.44;;;11.51;100.00
46267;BME280;31998;48.798;15.066;2022-11-06T10:58:26;95951.91;;;11.56;100.00
46267;BME280;31998;48.798;15.066;2022-11-06T11:00:51;95945.63;;;11.60;100.00
46267;BME280;31998;48.798;15.066;2022-11-06T11:05:51;95933.53;;;11.82;100.00
46267;BME280;31998;48.798;15.066;2022-11-06T11:08:36;95920.88;;;11.77;100.00
46267;BME280;31998;48.798;15.066;2022-11-06T11:16:37;95929.22;;;11.81;100.00
46267;BME280;31998;48.798;15.066;2022-11-06T11:21:57;95932.97;;;11.80;100.00
46267;BME280;31998;48.798;15.066;2022-11-06T11:24:23;95917.84;;;11.84;100.00
46267;BME280;31998;48.798;15.066;2022-11-06T11:26:51;95922.94;;;12.04;100.00
46267;BME280;31998;48.798;15.066;2022-11-06T11:29:29;95916.59;;;12.14;100.00
46267;BME280;31998;48.798;15.066;2022-11-06T11:31:58;95916.84;;;12.31;100.00
46267;BME280;31998;48.798;15.066;2022-11-06T11:34:29;95916.84;;;12.31;100.00
46267;BME280;31998;48.798;15.066;2022-11-06T11:37:00;95913.53;;;12.20;100.00
46267;BME280;31998;48.798;15.066;2022-11-06T11:39:35;95905.00;;;12.13;100.00
46267;BME280;31998;48.798;15.066;2022-11-06T11:42:27;95900.38;;;12.00;100.00
46267;BME280;31998;48.798;15.066;2022-11-06T11:45:25;95896.97;;;11.71;100.00
46267;BME280;31998;48.798;15.066;2022-11-06T11:47:51;95894.34;;;11.65;100.00
46267;BME280;31998;48.798;15.066;2022-11-06T11:50:23;95896.63;;;11.77;100.00
46267;BME280;31998;48.798;15.066;2022-11-06T11:52:51;95894.94;;;11.62;100.00
46267;BME280;31998;48.798;15.066;2022-11-06T11:55:21;95868.13;;;11.52;100.00
46267;BME280;31998;48.798;15.066;2022-11-06T11:57:49;95873.94;;;11.78;100.00
46267;BME280;31998;48.798;15.066;2022-11-06T12:00:19;95871.34;;;11.92;100.00
46267;BME280;31998;48.798;15.066;2022-11-06T12:02:57;95864.34;;;11.91;100.00
46267;BME280;31998;48.798;15.066;2022-11-06T12:05:31;95856.53;;;11.71;100.00
46267;BME280;31998;48.798;15.066;2022-11-06T12:07:58;95849.63;;;11.64;100.00
46267;BME280;31998;48.798;15.066;2022-11-06T12:10:28;95838.75;;;11.69;100.00
46267;BME280;31998;48.798;15.066;2022-11-06T12:12:57;95834.91;;;11.76;100.00
46267;BME280;31998;48.798;15.066;2022-11-06T12:15:37;95823.19;;;11.48;100.00
46267;BME280;31998;48.798;15.066;2022-11-06T12:18:08;95827.75;;;11.47;100.00
46267;BME280;31998;48.798;15.066;2022-11-06T12:20:42;95832.03;;;11.67;100.00
46267;BME280;31998;48.798;15.066;2022-11-06T12:23:18;95840.38;;;11.89;100.00
46267;BME280;31998;48.798;15.066;2022-11-06T12:25:57;95830.84;;;12.11;100.00
46267;BME280;31998;48.798;15.066;2022-11-06T12:28:24;95831.28;;;12.32;100.00
46267;BME280;31998;48.798;15.066;2022-11-06T12:30:59;95825.09;;;12.45;100.00
46267;BME280;31998;48.798;15.066;2022-11-06T12:33:28;95811.72;;;12.40;100.00
46267;BME280;31998;48.798;15.066;2022-11-06T12:35:59;95810.63;;;11.94;100.00
46267;BME280;31998;48.798;15.066;2022-11-06T12:39:15;95815.97;;;11.62;100.00
46267;BME280;31998;48.798;15.066;2022-11-06T12:41:46;95807.13;;;11.75;100.00
46267;BME280;31998;48.798;15.066;2022-11-06T12:44:15;95796.50;;;11.84;100.00
46267;BME280;31998;48.798;15.066;2022-11-06T13:00:23;95785.13;;;12.19;100.00
46267;BME280;31998;48.798;15.066;2022-11-06T13:03:27;95789.84;;;11.95;100.00
46267;BME280;31998;48.798;15.066;2022-11-06T13:06:13;95780.97;;;11.76;100.00
46267;BME280;31998;48.798;15.066;2022-11-06T13:09:02;95786.56;;;11.79;100.00
46267;BME280;31998;48.798;15.066;2022-11-06T13:15:02;95785.41;;;11.85;100.00
46267;BME280;31998;48.798;15.066;2022-11-06T13:17:36;95785.94;;;11.68;100.00
46267;BME280;31998;48.798;15.066;2022-11-06T13:25:23;95784.72;;;11.04;100.00
46267;BME280;31998;48.798;15.066;2022-11-06T13:27:58;95776.22;;;10.73;100.00
46267;BME280;31998;48.798;15.066;2022-11-06T13:30:27;95782.41;;;10.74;100.00
46267;BME280;31998;48.798;15.066;2022-11-06T13:33:16;95780.81;;;10.73;100.00
46267;BME280;31998;48.798;15.066;2022-11-06T13:35:42;95779.56;;;10.65;100.00
46267;BME280;31998;48.798;15.066;2022-11-06T13:38:14;95763.28;;;10.75;100.00
46267;BME280;31998;48.798;15.066;2022-11-06T13:40:45;95768.63;;;10.99;100.00
46267;BME280;31998;48.798;15.066;2022-11-06T13:43:17;95764.53;;;11.21;100.00
46267;BME280;31998;48.798;15.066;2022-11-06T13:48:22;95755.53;;;11.30;100.00
46267;BME280;31998;48.798;15.066;2022-11-06T13:50:57;95749.09;;;11.45;100.00
46267;BME280;31998;48.798;15.066;2022-11-06T13:53:33;95736.94;;;11.48;100.00
46267;BME280;31998;48.798;15.066;2022-11-06T13:58:57;95738.69;;;11.38;100.00
46267;BME280;31998;48.798;15.066;2022-11-06T14:01:47;95737.41;;;11.17;100.00
46267;BME280;31998;48.798;15.066;2022-11-06T14:07:04;95737.97;;;10.76;100.00
46267;BME280;31998;48.798;15.066;2022-11-06T14:09:33;95726.38;;;10.57;100.00
46267;BME280;31998;48.798;15.066;2022-11-06T14:12:04;95732.72;;;10.42;100.00
46267;BME280;31998;48.798;15.066;2022-11-06T14:14:32;95725.81;;;10.36;100.00
46267;BME280;31998;48.798;15.066;2022-11-06T14:20:06;95721.44;;;10.16;100.00
46267;BME280;31998;48.798;15.066;2022-11-06T14:22:49;95721.84;;;10.04;100.00
46267;BME280;31998;48.798;15.066;2022-11-06T14:30:38;95709.50;;;9.74;100.00
46267;BME280;31998;48.798;15.066;2022-11-06T14:33:09;95710.47;;;9.60;100.00
46267;BME280;31998;48.798;15.066;2022-11-06T14:40:53;95700.91;;;9.43;100.00
46267;BME280;31998;48.798;15.066;2022-11-06T14:48:42;95695.19;;;9.26;100.00
46267;BME280;31998;48.798;15.066;2022-11-06T14:51:10;95694.44;;;9.15;100.00
46267;BME280;31998;48.798;15.066;2022-11-06T14:53:46;95698.00;;;9.06;100.00